KIRK

Kirksville Regional Airport

Kirksville, Missouri, USA
METAR KIRK 241955Z AUTO 12009KT 1/4SM FG VV002 03/03 A2971 RMK AO2 SLP072 T00280028
Observed Flight Rules
Feb-24 @ 19:55 UTC (18 minutes ago) Instrument Flight Rules
Wind Visibility Clouds Conditions
120° at 9 knots 1/4 miles
  • Vertical visibility at 200' AGL
  • Fog
Temperatures Readings
Current 3°C / 37°F
Dewpoint 3°C / 37°F
Humidity 100%
Altimeter 29.71" Hg
Pressure 1007.2 hPa
Elevation 293
METAR KIRK 241955Z AUTO 12009KT 1/4SM FG VV002 03/03 A2971 RMK AO2 SLP072 T00280028
Observed Flight Rules
Feb-24 @ 19:55 UTC
(18 minutes ago)
LIFR
Wind Visibility
120° at 9 knots 1/4 miles
Clouds
  • Vertical visibility at 200' AGL
Conditions
  • Fog
Temperature Dewpoint
3°C / 37°F 3°C / 37°F
Humidity Altimeter Pressure
100% 29.71" Hg 1007.2 hPa